createdAt,value
2023-05-01T05:55:25.270Z,100460.75
2023-05-01T05:56:29.224Z,100475.30
2023-05-01T05:57:31.930Z,100467.18
2023-05-01T05:58:36.785Z,100457.87
2023-05-01T05:59:40.296Z,100472.58
2023-05-01T06:00:42.548Z,100469.12
2023-05-01T06:01:45.413Z,100468.42
2023-05-01T06:02:47.544Z,100470.97
2023-05-01T06:03:50.102Z,100478.27
2023-05-01T06:04:52.437Z,100467.36
2023-05-01T06:05:56.070Z,100473.89
2023-05-01T06:06:58.758Z,100495.07
2023-05-01T06:08:00.862Z,100481.97
2023-05-01T06:09:03.242Z,100483.85
2023-05-01T06:10:10.927Z,100489.41
2023-05-01T06:11:15.418Z,100484.80
2023-05-01T06:12:17.784Z,100482.23
2023-05-01T06:13:20.904Z,100476.44
2023-05-01T06:14:24.607Z,100477.39
2023-05-01T06:15:27.412Z,100491.14
2023-05-01T06:16:29.878Z,100475.14
2023-05-01T06:17:35.510Z,100489.22
2023-05-01T06:18:37.766Z,100492.48
2023-05-01T06:19:42.745Z,100482.80
2023-05-01T06:20:45.473Z,100500.56
2023-05-01T06:21:47.808Z,100502.11
2023-05-01T06:22:50.163Z,100518.32
2023-05-01T06:23:54.149Z,100515.09
2023-05-01T06:24:58.112Z,100511.09
2023-05-01T06:29:56.226Z,100505.53
2023-05-01T06:30:59.952Z,100504.31
2023-05-01T06:32:03.527Z,100511.09
2023-05-01T06:33:06.261Z,100520.77
2023-05-01T06:34:09.107Z,100521.55
2023-05-01T06:35:13.146Z,100515.09
2023-05-01T06:36:16.323Z,100508.64
2023-05-01T06:37:18.480Z,100509.25
2023-05-01T06:38:20.632Z,100517.45
2023-05-01T06:39:22.918Z,100514.87
2023-05-01T06:40:25.040Z,100519.84
2023-05-01T06:41:29.138Z,100516.59
2023-05-01T06:42:31.512Z,100526.38
2023-05-01T06:43:35.634Z,100524.23
2023-05-01T06:44:38.004Z,100536.45
2023-05-01T06:45:40.194Z,100518.55
2023-05-01T06:46:42.608Z,100532.31
2023-05-01T06:47:45.906Z,100526.91
2023-05-01T06:48:49.726Z,100528.91
2023-05-01T06:49:51.963Z,100508.88
2023-05-01T06:50:55.783Z,100520.31
2023-05-01T06:51:58.003Z,100534.84
2023-05-01T06:53:00.165Z,100523.59
2023-05-01T06:54:02.301Z,100550.94
2023-05-01T06:55:07.878Z,100536.27
2023-05-01T06:56:10.360Z,100537.17
2023-05-01T06:57:12.446Z,100527.16
2023-05-01T06:58:23.323Z,100527.47
2023-05-01T06:59:18.980Z,100528.41
2023-05-01T07:00:21.187Z,100526.27
2023-05-01T07:01:23.423Z,100521.66
2023-05-01T07:02:26.065Z,100531.86
2023-05-01T07:03:28.418Z,100520.89
2023-05-01T07:04:31.720Z,100538.67
2023-05-01T07:05:33.714Z,100540.99
2023-05-01T07:06:36.419Z,100532.33
2023-05-01T07:07:42.304Z,100536.34
2023-05-01T07:08:43.169Z,100531.56
2023-05-01T07:09:45.297Z,100525.68
2023-05-01T07:10:47.415Z,100531.56
2023-05-01T07:11:49.636Z,100536.98
2023-05-01T07:12:51.777Z,100540.86
2023-05-01T07:13:54.262Z,100520.93
2023-05-01T07:14:56.297Z,100539.02
2023-05-01T07:15:58.266Z,100552.45
2023-05-01T07:17:02.385Z,100534.98
2023-05-01T07:18:06.540Z,100537.31
2023-05-01T07:19:09.059Z,100540.55
2023-05-01T07:20:12.365Z,100560.33
2023-05-01T07:21:14.604Z,100543.04
2023-05-01T07:22:16.707Z,100540.55
2023-05-01T07:23:18.615Z,100555.22
2023-05-01T07:24:20.632Z,100554.45
2023-05-01T07:25:22.761Z,100556.00
2023-05-01T07:26:26.266Z,100571.45
2023-05-01T07:27:28.594Z,100562.02
2023-05-01T07:28:30.716Z,100558.00
2023-05-01T07:29:32.930Z,100557.23
2023-05-01T07:30:38.241Z,100548.30
2023-05-01T07:31:40.429Z,100559.14
2023-05-01T07:32:42.469Z,100563.93
2023-05-01T07:33:44.831Z,100563.78
2023-05-01T07:34:46.836Z,100558.86
2023-05-01T07:35:48.771Z,100565.51
2023-05-01T07:36:51.110Z,100571.84
2023-05-01T07:37:53.422Z,100586.85
2023-05-01T07:38:55.487Z,100565.19
2023-05-01T07:39:57.787Z,100575.86
2023-05-01T07:41:01.640Z,100577.73
2023-05-01T07:42:03.908Z,100581.89
2023-05-01T07:43:06.082Z,100576.81
2023-05-01T07:44:08.321Z,100567.98
2023-05-01T07:45:11.706Z,100576.18
2023-05-01T07:46:14.094Z,100580.05
2023-05-01T07:47:16.350Z,100587.94
2023-05-01T07:48:18.388Z,100569.37
2023-05-01T07:49:20.520Z,100573.86
2023-05-01T07:50:24.177Z,100572.63
2023-05-01T07:51:26.484Z,100571.25
2023-05-01T07:52:28.600Z,100577.41
2023-05-01T07:53:30.773Z,100584.53
2023-05-01T07:54:33.662Z,100572.94
2023-05-01T07:55:35.994Z,100576.03
2023-05-01T07:56:39.005Z,100574.66
2023-05-01T07:57:41.240Z,100577.75
2023-05-01T07:58:43.497Z,100588.11
2023-05-01T07:59:45.728Z,100595.52
2023-05-01T08:00:48.029Z,100588.23
2023-05-01T08:01:50.072Z,100595.52
2023-05-01T08:02:52.133Z,100586.08
2023-05-01T08:03:54.846Z,100583.61
2023-05-01T08:04:57.423Z,100584.22
2023-05-01T08:06:01.371Z,100591.64
2023-05-01T08:07:03.562Z,100597.06
2023-05-01T08:08:06.705Z,100595.06
2023-05-01T08:09:08.922Z,100599.22
2023-05-01T08:10:11.542Z,100598.44
2023-05-01T08:11:13.635Z,100587.94
2023-05-01T08:12:15.773Z,100602.31
2023-05-01T08:13:17.964Z,100591.95
2023-05-01T08:14:20.098Z,100606.78
2023-05-01T08:15:22.117Z,100594.42
2023-05-01T08:16:24.349Z,100593.19
2023-05-01T08:17:26.764Z,100594.89
2023-05-01T08:18:29.764Z,100588.26
2023-05-01T08:19:34.153Z,100589.98
2023-05-01T08:20:36.660Z,100587.79
2023-05-01T08:21:38.671Z,100596.00
2023-05-01T08:22:40.800Z,100594.45
2023-05-01T08:23:43.000Z,100605.58
2023-05-01T08:24:45.379Z,100598.01
2023-05-01T08:25:47.594Z,100601.71
2023-05-01T08:26:51.641Z,100592.90
2023-05-01T08:27:53.713Z,100609.91
2023-05-01T08:28:55.855Z,100604.49
2023-05-01T08:29:58.125Z,100613.02
2023-05-01T08:31:00.857Z,100611.30
2023-05-01T08:32:03.531Z,100611.92
2023-05-01T08:33:05.731Z,100601.91
2023-05-01T08:34:08.373Z,100600.53
2023-05-01T08:35:10.669Z,100618.64
2023-05-01T08:36:13.257Z,100611.38
2023-05-01T08:37:15.464Z,100615.98
2023-05-01T08:38:17.469Z,100609.83
2023-05-01T08:39:19.686Z,100617.41
2023-05-01T08:40:23.718Z,100623.43
2023-05-01T08:41:27.252Z,100610.89
2023-05-01T08:42:31.014Z,100610.27
2023-05-01T08:43:33.477Z,100619.19
2023-05-01T08:44:37.890Z,100605.73
2023-05-01T08:45:40.122Z,100613.63
2023-05-01T08:47:11.653Z,100610.27
2023-05-01T08:48:16.509Z,100626.36
2023-05-01T08:49:19.165Z,100607.64
2023-05-01T08:50:21.400Z,100635.34
2023-05-01T08:51:25.354Z,100630.55
2023-05-01T08:52:27.599Z,100622.03
2023-05-01T08:53:30.161Z,100615.69
2023-05-01T08:54:32.939Z,100612.44
2023-05-01T08:55:35.088Z,100621.42
2023-05-01T08:56:37.356Z,100613.38
2023-05-01T08:57:46.304Z,100625.43
2023-05-01T08:58:49.403Z,100629.45
2023-05-01T08:59:51.560Z,100615.85
2023-05-01T09:00:53.850Z,100616.94
2023-05-01T09:01:56.561Z,100617.69
2023-05-01T09:06:44.145Z,100619.41
2023-05-01T09:07:46.841Z,100632.41
2023-05-01T09:08:48.823Z,100639.35
2023-05-01T09:09:50.781Z,100650.64
2023-05-01T09:10:53.126Z,100644.02
2023-05-01T09:11:56.314Z,100644.47
2023-05-01T09:13:00.670Z,100631.16
2023-05-01T09:14:02.833Z,100636.27
2023-05-01T09:15:08.503Z,100638.73
2023-05-01T09:16:10.695Z,100659.00
2023-05-01T09:17:13.220Z,100640.74
2023-05-01T09:18:15.324Z,100638.73
2023-05-01T09:19:18.855Z,100629.00
2023-05-01T09:20:21.247Z,100633.64
2023-05-01T09:21:23.485Z,100634.25
2023-05-01T09:22:25.820Z,100636.73
2023-05-01T09:23:29.795Z,100637.67
2023-05-01T09:24:31.967Z,100642.30
2023-05-01T09:25:33.962Z,100650.65
2023-05-01T09:26:40.779Z,100639.22
2023-05-01T09:27:43.040Z,100645.26
2023-05-01T09:28:46.388Z,100641.07
2023-05-01T09:29:48.823Z,100647.56
2023-05-01T09:30:50.873Z,100648.80
2023-05-01T09:31:56.874Z,100643.69
2023-05-01T09:34:15.577Z,100643.56
2023-05-01T09:35:17.942Z,100636.59
2023-05-01T09:36:20.069Z,100645.57
2023-05-01T09:37:30.064Z,100644.80
2023-05-01T09:38:32.219Z,100647.27
2023-05-01T09:39:34.431Z,100646.03
2023-05-01T09:40:36.738Z,100657.32
2023-05-01T09:41:42.421Z,100640.61
2023-05-01T09:42:49.737Z,100642.47
2023-05-01T09:43:56.107Z,100653.61
2023-05-01T09:46:10.797Z,100640.28
2023-05-01T09:47:13.349Z,100643.70
2023-05-01T09:48:15.449Z,100643.84
2023-05-01T09:49:17.664Z,100656.38
2023-05-01T09:50:33.996Z,100661.18
2023-05-01T09:51:36.167Z,100641.52
2023-05-01T09:52:39.374Z,100640.13
2023-05-01T09:53:41.603Z,100643.70
2023-05-01T09:54:43.667Z,100648.34
2023-05-01T09:57:00.234Z,100644.00
2023-05-01T09:58:02.275Z,100646.33
2023-05-01T09:59:20.195Z,100644.00
2023-05-01T10:00:22.818Z,100666.30
2023-05-01T10:01:44.853Z,100660.72
2023-05-01T10:02:48.086Z,100655.14
2023-05-01T10:03:53.891Z,100681.46
2023-05-01T10:04:58.144Z,100667.06
2023-05-01T10:06:00.350Z,100655.61
2023-05-01T10:07:12.810Z,100654.84
2023-05-01T10:08:15.020Z,100648.95
2023-05-01T10:09:28.453Z,100646.16
2023-05-01T10:10:30.557Z,100646.16
2023-05-01T10:11:50.986Z,100647.71
2023-05-01T10:12:53.483Z,100641.52
2023-05-01T10:14:10.458Z,100644.00
2023-05-01T10:15:24.459Z,100644.44
2023-05-01T10:16:30.708Z,100655.91
2023-05-01T10:17:33.684Z,100654.97
2023-05-01T10:18:37.712Z,100651.88
2023-05-01T10:19:39.994Z,100653.23
2023-05-01T10:20:42.337Z,100657.11
2023-05-01T10:21:44.520Z,100660.98
2023-05-01T10:22:47.362Z,100670.43
2023-05-01T10:23:49.532Z,100658.97
2023-05-01T10:24:51.596Z,100659.43
2023-05-01T10:25:53.817Z,100658.53
2023-05-01T10:26:56.478Z,100662.56
2023-05-01T10:27:59.044Z,100654.36
2023-05-01T10:29:03.140Z,100646.45
2023-05-01T10:30:09.959Z,100656.83
2023-05-01T10:31:12.409Z,100662.56
2023-05-01T10:32:15.002Z,100655.09
2023-05-01T10:33:17.710Z,100663.30
2023-05-01T10:34:21.354Z,100653.39
2023-05-01T10:36:40.093Z,100644.24
2023-05-01T10:37:50.659Z,100652.77
2023-05-01T10:38:52.827Z,100652.15
2023-05-01T10:39:55.080Z,100661.28
2023-05-01T10:41:05.526Z,100664.66
2023-05-01T10:42:08.719Z,100664.07
2023-05-01T10:44:37.822Z,100654.42
2023-05-01T10:45:40.010Z,100666.20
2023-05-01T10:46:42.231Z,100663.26
2023-05-01T10:47:44.906Z,100672.09
2023-05-01T10:48:50.667Z,100673.33
2023-05-01T10:50:09.176Z,100662.95
2023-05-01T10:51:27.721Z,100662.48
2023-05-01T10:52:29.609Z,100667.29
2023-05-01T10:53:31.890Z,100668.84
2023-05-01T10:54:34.131Z,100665.73
2023-05-01T10:55:38.193Z,100666.52
2023-05-01T10:56:42.128Z,100659.39
2023-05-01T10:57:44.425Z,100663.72
2023-05-01T10:58:56.591Z,100674.41
2023-05-01T11:00:05.515Z,100667.91
2023-05-01T11:02:37.033Z,100653.20
2023-05-01T11:03:39.145Z,100663.09
2023-05-01T11:04:50.517Z,100670.22
2023-05-01T11:07:17.885Z,100659.05
2023-05-01T11:09:56.408Z,100667.26
2023-05-01T11:12:39.593Z,100664.35
2023-05-01T11:14:06.262Z,100668.37
2023-05-01T11:15:09.805Z,100658.14
2023-05-01T11:16:39.012Z,100659.38
2023-05-01T11:17:45.396Z,100659.55
2023-05-01T11:18:47.929Z,100666.02
2023-05-01T11:19:50.306Z,100672.67
2023-05-01T11:20:54.769Z,100661.35
2023-05-01T11:21:56.776Z,100664.92
2023-05-01T11:22:59.017Z,100658.73
2023-05-01T11:24:01.204Z,100664.30
2023-05-01T11:25:21.811Z,100662.12
2023-05-01T11:26:24.968Z,100668.02
2023-05-01T11:27:27.168Z,100663.98
2023-05-01T11:28:30.486Z,100676.22
2023-05-01T11:29:32.502Z,100662.73
2023-05-01T11:30:38.321Z,100659.48
2023-05-01T11:31:40.594Z,100663.81
2023-05-01T11:32:43.779Z,100666.61
2023-05-01T11:33:45.938Z,100664.09
2023-05-01T11:34:49.140Z,100662.38
2023-05-01T11:35:58.943Z,100662.98
2023-05-01T11:37:01.050Z,100667.63
2023-05-01T11:38:03.156Z,100669.48
2023-05-01T11:39:05.123Z,100668.41
2023-05-01T11:41:31.593Z,100671.14
2023-05-01T11:42:34.909Z,100681.45
2023-05-01T11:43:40.885Z,100679.12
2023-05-01T11:44:43.137Z,100682.85
2023-05-01T11:45:45.165Z,100677.63
2023-05-01T11:47:55.271Z,100661.91
2023-05-01T11:49:00.143Z,100675.25
2023-05-01T11:50:02.401Z,100679.28
2023-05-01T11:51:14.647Z,100676.33
2023-05-01T11:52:16.759Z,100683.77
2023-05-01T11:53:19.000Z,100675.70
2023-05-01T11:54:23.182Z,100662.82
2023-05-01T11:55:31.588Z,100670.73
2023-05-01T11:56:36.143Z,100669.02
2023-05-01T11:57:51.443Z,100675.95
2023-05-01T12:00:09.872Z,100682.75
2023-05-01T12:01:13.807Z,100664.98
2023-05-01T12:02:19.846Z,100671.34
2023-05-01T12:03:22.495Z,100669.79
2023-05-01T12:04:28.823Z,100661.11
2023-05-01T12:05:31.048Z,100663.43
2023-05-01T12:06:38.893Z,100668.08
2023-05-01T12:07:41.035Z,100672.82
2023-05-01T12:08:44.426Z,100681.63
2023-05-01T12:09:46.612Z,100676.83
2023-05-01T12:10:53.890Z,100681.94
2023-05-01T12:11:56.975Z,100666.12
2023-05-01T12:12:59.096Z,100669.09
2023-05-01T12:14:01.218Z,100677.77
2023-05-01T12:15:06.885Z,100666.43
2023-05-01T12:16:09.253Z,100673.36
2023-05-01T12:17:11.483Z,100671.17
2023-05-01T12:18:14.432Z,100673.02
2023-05-01T12:19:16.934Z,100675.04
2023-05-01T12:20:33.912Z,100688.70
2023-05-01T12:21:36.153Z,100681.09
2023-05-01T12:22:49.438Z,100682.52
2023-05-01T12:23:51.669Z,100676.92
2023-05-01T12:24:54.043Z,100685.30
2023-05-01T12:25:56.083Z,100685.78
2023-05-01T12:27:01.216Z,100674.13
2023-05-01T12:28:05.755Z,100675.68
2023-05-01T12:29:07.988Z,100679.55
2023-05-01T12:30:13.398Z,100678.91
2023-05-01T12:31:15.495Z,100679.68
2023-05-01T12:32:18.038Z,100683.55
2023-05-01T12:33:21.352Z,100685.73
2023-05-01T12:34:29.520Z,100677.06
2023-05-01T12:35:34.811Z,100674.73
2023-05-01T12:36:36.957Z,100675.98
2023-05-01T12:37:39.094Z,100676.76
2023-05-01T12:38:41.187Z,100679.08
2023-05-01T12:39:43.285Z,100678.30
2023-05-01T12:40:56.543Z,100688.06
2023-05-01T12:41:58.592Z,100679.04
2023-05-01T12:43:00.649Z,100681.63
2023-05-01T12:44:17.750Z,100676.81
2023-05-01T12:45:20.128Z,100680.58
2023-05-01T12:46:22.328Z,100676.55
2023-05-01T12:47:24.716Z,100674.50
2023-05-01T12:48:27.347Z,100666.89
2023-05-01T12:49:30.399Z,100671.53
2023-05-01T12:51:48.223Z,100654.64
2023-05-01T12:52:50.341Z,100689.62
2023-05-01T12:53:52.337Z,100681.80
2023-05-01T12:55:02.964Z,100672.18
2023-05-01T12:56:05.153Z,100672.18
2023-05-01T12:57:12.988Z,100695.78
2023-05-01T12:58:15.840Z,100685.08
2023-05-01T12:59:27.399Z,100690.39
2023-05-01T13:00:29.591Z,100693.19
2023-05-01T13:01:31.937Z,100695.68
2023-05-01T13:02:34.571Z,100689.02
2023-05-01T13:03:41.134Z,100683.43
2023-05-01T13:04:43.552Z,100692.11
2023-05-01T13:05:57.215Z,100685.28
2023-05-01T13:06:59.785Z,100692.89
2023-05-01T13:08:05.536Z,100699.13
2023-05-01T13:09:11.536Z,100683.61
2023-05-01T13:10:13.746Z,100689.66
2023-05-01T13:11:17.108Z,100680.81
2023-05-01T13:12:20.399Z,100683.61
2023-05-01T13:14:39.870Z,100672.77
2023-05-01T13:15:42.050Z,100679.99
2023-05-01T13:16:45.247Z,100684.37
2023-05-01T13:17:47.802Z,100691.98
2023-05-01T13:18:51.796Z,100687.17
2023-05-01T13:21:06.983Z,100683.73
2023-05-01T13:22:09.216Z,100680.98
2023-05-01T13:23:13.250Z,100690.14
2023-05-01T13:24:15.648Z,100691.38
2023-05-01T13:25:18.551Z,100683.48
2023-05-01T13:26:27.887Z,100696.80
2023-05-01T13:27:30.252Z,100698.17
2023-05-01T13:28:45.059Z,100696.62
2023-05-01T13:29:54.721Z,100715.71
2023-05-01T13:30:57.110Z,100698.47
2023-05-01T13:31:59.195Z,100698.17
2023-05-01T13:33:03.492Z,100693.36
2023-05-01T13:34:05.880Z,100694.44
2023-05-01T13:35:11.190Z,100694.23
2023-05-01T13:36:24.391Z,100692.69
2023-05-01T13:37:18.018Z,100687.09
2023-05-01T13:38:20.138Z,100687.70
2023-05-01T13:39:22.391Z,100687.22
2023-05-01T13:40:25.543Z,100699.34
2023-05-01T13:41:27.902Z,100703.12
2023-05-01T13:42:32.219Z,100707.42
2023-05-01T13:43:34.581Z,100703.12
2023-05-01T13:44:43.898Z,100707.42
2023-05-01T13:45:46.021Z,100706.66
2023-05-01T13:46:49.115Z,100713.52
2023-05-01T13:47:51.300Z,100713.39
2023-05-01T13:48:53.579Z,100704.53
2023-05-01T13:49:55.933Z,100707.80
2023-05-01T13:50:58.815Z,100704.41
2023-05-01T13:52:00.750Z,100702.09
2023-05-01T13:53:03.016Z,100699.13
2023-05-01T13:54:05.306Z,100713.22
2023-05-01T13:55:10.890Z,100710.52
2023-05-01T13:56:13.137Z,100708.03
2023-05-01T13:57:15.655Z,100701.97
2023-05-01T13:58:17.794Z,100709.09
2023-05-01T13:59:20.014Z,100700.42
2023-05-01T14:00:22.018Z,100724.62
2023-05-01T14:01:28.270Z,100720.58
2023-05-01T14:02:30.938Z,100708.16
2023-05-01T14:04:52.724Z,100703.41
2023-05-01T14:07:26.292Z,100699.01
2023-05-01T14:08:37.111Z,100715.36
2023-05-01T14:09:39.648Z,100712.09
2023-05-01T14:10:42.767Z,100703.05
2023-05-01T14:11:48.255Z,100703.34
2023-05-01T14:12:52.525Z,100712.03
2023-05-01T14:13:54.955Z,100706.23
2023-05-01T14:14:57.104Z,100707.98
2023-05-01T14:15:59.679Z,100707.69
2023-05-01T14:17:02.017Z,100706.62
2023-05-01T14:19:15.608Z,100707.78
2023-05-01T14:20:17.875Z,100714.70
2023-05-01T14:21:20.579Z,100713.64
2023-05-01T14:22:22.849Z,100721.72
2023-05-01T14:23:24.908Z,100718.45
2023-05-01T14:24:27.110Z,100718.93
2023-05-01T14:25:31.311Z,100720.66
2023-05-01T14:26:35.277Z,100722.38
2023-05-01T14:27:38.969Z,100723.92
2023-05-01T14:28:46.117Z,100720.05
2023-05-01T14:29:50.070Z,100718.33
2023-05-01T14:30:52.389Z,100715.84
2023-05-01T14:31:54.511Z,100717.68
2023-05-01T14:32:56.677Z,100725.12
2023-05-01T14:34:01.317Z,100716.73
2023-05-01T14:35:08.457Z,100723.09
2023-05-01T14:36:12.200Z,100723.87
2023-05-01T14:37:14.264Z,100709.41
2023-05-01T14:38:18.057Z,100718.27
2023-05-01T14:39:20.309Z,100730.53
2023-05-01T14:40:27.546Z,100719.64
2023-05-01T14:41:30.027Z,100712.80
2023-05-01T14:42:32.546Z,100721.37
2023-05-01T14:43:34.687Z,100722.14
2023-05-01T14:44:39.280Z,100730.83
2023-05-01T14:45:44.055Z,100742.66
2023-05-01T14:46:48.141Z,100726.84
2023-05-01T14:47:50.574Z,100730.11
2023-05-01T14:48:52.884Z,100732.61
2023-05-01T14:49:54.939Z,100731.06
2023-05-01T14:50:57.414Z,100726.54
2023-05-01T14:51:59.662Z,100726.36
2023-05-01T14:53:01.968Z,100737.55
2023-05-01T14:54:04.021Z,100742.19
2023-05-01T14:55:08.329Z,100732.55
2023-05-01T14:56:11.649Z,100744.98
2023-05-01T14:57:15.695Z,100732.25
2023-05-01T14:58:17.759Z,100730.70
2023-05-01T14:59:20.855Z,100738.32
2023-05-01T15:00:23.846Z,100747.66
2023-05-01T15:01:26.106Z,100745.33
2023-05-01T15:02:29.039Z,100735.30
2023-05-01T15:03:33.998Z,100735.00
2023-05-01T15:04:36.383Z,100738.72
2023-05-01T15:05:38.417Z,100733.30
2023-05-01T15:06:40.788Z,100749.00
2023-05-01T15:07:43.107Z,100734.25
2023-05-01T15:08:45.315Z,100736.57
2023-05-01T15:09:47.805Z,100746.20
2023-05-01T15:10:51.786Z,100747.27
2023-05-01T15:11:53.920Z,100743.23
2023-05-01T15:12:56.129Z,100740.73
2023-05-01T15:13:58.236Z,100744.64
2023-05-01T15:15:00.594Z,100744.94
2023-05-01T15:16:06.022Z,100741.64
2023-05-01T15:17:08.199Z,100744.44
2023-05-01T15:18:10.278Z,100748.00
2023-05-01T15:19:12.596Z,100742.41
2023-05-01T15:20:15.230Z,100746.75
2023-05-01T15:21:17.480Z,100750.80
2023-05-01T15:22:19.609Z,100747.53
2023-05-01T15:23:21.628Z,100751.09
2023-05-01T15:24:23.780Z,100751.09
2023-05-01T15:25:25.912Z,100751.70
2023-05-01T15:26:28.509Z,100755.27
2023-05-01T15:27:30.690Z,100758.06
2023-05-01T15:28:32.798Z,100754.97
2023-05-01T15:29:35.116Z,100764.59
2023-05-01T15:30:37.249Z,100752.64
2023-05-01T15:31:39.750Z,100756.69
2023-05-01T15:32:42.529Z,100757.16
2023-05-01T15:37:13.634Z,100756.52
2023-05-01T15:38:15.880Z,100754.57
2023-05-01T15:39:17.895Z,100764.52
2023-05-01T15:40:20.141Z,100764.52
2023-05-01T15:41:22.226Z,100760.34
2023-05-01T15:42:24.390Z,100763.61
2023-05-01T15:43:26.686Z,100761.78
2023-05-01T15:44:28.742Z,100771.28
2023-05-01T15:45:33.303Z,100763.38
2023-05-01T15:47:45.834Z,100769.39
2023-05-01T15:48:48.221Z,100772.22
2023-05-01T15:49:50.164Z,100774.55
2023-05-01T15:50:52.389Z,100769.43
2023-05-01T15:51:54.395Z,100761.05
2023-05-01T15:52:56.782Z,100777.34
2023-05-01T15:53:59.091Z,100769.73
2023-05-01T15:55:01.124Z,100772.53
2023-05-01T15:56:03.267Z,100785.25
2023-05-01T15:57:06.089Z,100774.72
2023-05-01T15:58:08.144Z,100784.03
2023-05-01T15:59:10.286Z,100780.94
2023-05-01T16:00:15.732Z,100776.59
2023-05-01T16:01:18.015Z,100775.35
2023-05-01T16:02:21.806Z,100775.66
2023-05-01T16:03:24.326Z,100772.09
2023-05-01T16:04:27.521Z,100779.22
2023-05-01T16:05:29.638Z,100786.22
2023-05-01T16:06:31.949Z,100787.77
2023-05-01T16:07:34.169Z,100785.17
2023-05-01T16:08:38.511Z,100787.97
2023-05-01T16:09:41.359Z,100786.11
2023-05-01T16:10:43.717Z,100793.25
2023-05-01T16:11:45.812Z,100792.00
2023-05-01T16:12:47.794Z,100794.96
2023-05-01T16:13:49.944Z,100800.55
2023-05-01T16:14:52.133Z,100795.90
2023-05-01T16:15:54.245Z,100795.12
2023-05-01T16:16:56.819Z,100798.39
2023-05-01T16:18:01.414Z,100797.61
2023-05-01T16:19:04.023Z,100795.29
2023-05-01T16:20:10.345Z,100796.06
2023-05-01T16:21:14.400Z,100805.22
2023-05-01T16:22:16.584Z,100810.02
2023-05-01T16:23:18.666Z,100809.87
2023-05-01T16:24:20.847Z,100806.81
2023-05-01T16:25:23.023Z,100810.37
2023-05-01T16:26:27.993Z,100809.61
2023-05-01T16:27:30.372Z,100812.09
2023-05-01T16:28:35.499Z,100814.88
2023-05-01T16:29:37.632Z,100816.75
2023-05-01T16:30:41.371Z,100812.10
2023-05-01T16:31:44.331Z,100816.14
2023-05-01T16:32:46.521Z,100813.03
2023-05-01T16:33:48.887Z,100816.77
2023-05-01T16:34:51.245Z,100812.45
2023-05-01T16:35:53.454Z,100826.41
2023-05-01T16:36:55.802Z,100824.39
2023-05-01T16:37:59.288Z,100824.08
2023-05-01T16:39:01.858Z,100821.30
2023-05-01T16:40:06.359Z,100822.53
2023-05-01T16:41:08.639Z,100827.03
2023-05-01T16:43:23.199Z,100835.38
2023-05-01T16:44:25.378Z,100834.63
2023-05-01T16:45:27.808Z,100831.06
2023-05-01T16:46:30.049Z,100837.42
2023-05-01T16:47:32.469Z,100839.75
2023-05-01T16:48:34.646Z,100840.98
2023-05-01T16:49:36.941Z,100842.69
2023-05-01T16:50:39.580Z,100846.41
2023-05-01T16:51:41.639Z,100843.31
2023-05-01T16:52:43.897Z,100845.80
2023-05-01T16:53:45.986Z,100848.73
2023-05-01T16:54:48.225Z,100846.91
2023-05-01T16:55:50.410Z,100851.86
2023-05-01T16:56:52.538Z,100850.78
2023-05-01T16:57:54.877Z,100847.83
2023-05-01T16:58:56.991Z,100855.11
2023-05-01T17:00:01.313Z,100852.03
2023-05-01T17:01:04.154Z,100848.16
2023-05-01T17:02:06.590Z,100854.63
2023-05-01T17:03:09.209Z,100856.34
2023-05-01T17:04:13.614Z,100854.47
2023-05-01T17:05:16.041Z,100853.38
2023-05-01T17:06:18.200Z,100854.30
2023-05-01T17:07:22.370Z,100864.86
2023-05-01T17:08:24.583Z,100864.55
2023-05-01T17:09:27.505Z,100861.91
2023-05-01T17:10:30.744Z,100866.39
2023-05-01T17:11:32.929Z,100870.87
2023-05-01T17:12:35.119Z,100868.23
2023-05-01T17:13:37.122Z,100869.16
2023-05-01T17:14:39.319Z,100873.66
2023-05-01T17:15:41.573Z,100876.14
2023-05-01T17:16:43.883Z,100867.92
2023-05-01T17:17:46.220Z,100870.84
2023-05-01T17:18:48.383Z,100870.53
2023-05-01T17:19:50.444Z,100876.56
2023-05-01T17:20:52.920Z,100877.02
2023-05-01T17:21:54.952Z,100875.64
2023-05-01T17:22:57.038Z,100876.55
2023-05-01T17:23:59.060Z,100882.27
2023-05-01T17:25:01.107Z,100881.17
2023-05-01T17:26:03.359Z,100874.97
2023-05-01T17:27:05.713Z,100884.23
2023-05-01T17:28:08.104Z,100881.63
2023-05-01T17:29:10.296Z,100882.99
2023-05-01T17:30:13.374Z,100889.02
2023-05-01T17:31:17.499Z,100886.69
2023-05-01T17:32:29.566Z,100889.93
2023-05-01T17:33:24.400Z,100888.05
2023-05-01T17:34:26.874Z,100887.73
2023-05-01T17:35:29.066Z,100892.20
2023-05-01T17:36:31.254Z,100893.15
2023-05-01T17:37:33.238Z,100892.05
2023-05-01T17:38:35.536Z,100895.29
2023-05-01T17:39:37.648Z,100896.20
2023-05-01T17:40:39.708Z,100898.66
2023-05-01T17:41:41.724Z,100895.55
2023-05-01T17:42:43.612Z,100900.80
2023-05-01T17:43:45.802Z,100898.17
2023-05-01T17:44:48.342Z,100908.22
2023-05-01T17:45:50.508Z,100914.23
2023-05-01T17:46:53.064Z,100913.14
2023-05-01T17:47:55.285Z,100908.47
2023-05-01T17:48:57.464Z,100909.35
2023-05-01T17:49:59.859Z,100920.16
2023-05-01T17:51:03.353Z,100914.27
2023-05-01T17:52:05.507Z,100918.77
2023-05-01T17:53:08.387Z,100916.44
2023-05-01T17:54:11.019Z,100918.11
2023-05-01T17:55:14.359Z,100919.02
2023-05-01T17:56:17.309Z,100927.82
2023-05-01T17:57:19.578Z,100921.92
2023-05-01T17:58:21.965Z,100928.72
2023-05-01T17:59:24.141Z,100927.62
2023-05-01T18:00:26.337Z,100923.28
2023-05-01T18:01:28.775Z,100926.52
2023-05-01T18:02:31.918Z,100926.22
2023-05-01T18:03:34.870Z,100927.45
2023-05-01T18:04:38.031Z,100931.13
2023-05-01T18:05:40.287Z,100932.36
2023-05-01T18:06:42.308Z,100932.80
2023-05-01T18:07:44.751Z,100928.14
2023-05-01T18:08:46.828Z,100936.94
2023-05-01T18:09:49.346Z,100936.61
2023-05-01T18:10:52.405Z,100937.84
2023-05-01T18:11:54.620Z,100940.29
2023-05-01T18:12:57.416Z,100945.53
2023-05-01T18:13:59.585Z,100944.00
2023-05-01T18:15:01.931Z,100944.45
2023-05-01T18:16:06.036Z,100946.91
2023-05-01T18:17:08.240Z,100948.58
2023-05-01T18:18:10.836Z,100952.58
2023-05-01T18:19:13.586Z,100944.69
2023-05-01T18:20:16.043Z,100951.48
2023-05-01T18:21:18.181Z,100953.93
2023-05-01T18:22:20.474Z,100956.38
2023-05-01T18:23:22.393Z,100960.39
2023-05-01T18:24:24.591Z,100962.84
2023-05-01T18:25:26.593Z,100966.06
2023-05-01T18:26:28.696Z,100964.20
2023-05-01T18:27:31.002Z,100965.43
2023-05-01T18:28:33.182Z,100969.11
2023-05-01T18:29:36.020Z,100961.66
2023-05-01T18:30:38.321Z,100966.89
2023-05-01T18:31:40.439Z,100970.11
2023-05-01T18:32:48.271Z,100967.45
2023-05-01T18:33:46.437Z,100971.45
2023-05-01T18:34:48.640Z,100973.15
2023-05-01T18:35:50.738Z,100972.04
2023-05-01T18:36:53.370Z,100970.15